Пилотам вертолетов

Aviation Digital Data Service (ADDS)

Output produced by METARs form (0503 UTC 24 September 2017)
found at http://aviationweather.gov/adds/metars/
 
METAR text: UUWW 240430Z 08002MPS 8000 NSC 07/05 Q1036 R06/000070 NOSIG
Conditions at: UUWW (MOSCOW/VNUKOVO , RU) observed 0430 UTC 24 September 2017
Temperature: 7.0°C (45°F)
Dewpoint: 5.0°C (41°F) [RH = 87%]
Pressure (altimeter): 30.59 inches Hg (1036.0 mb)
Winds: from the E (80 degrees) at 5 MPH (4 knots; 2.1 m/s)
Visibility: 5 miles (8 km)
Ceiling: at least 12,000 feet AGL
Clouds: sky clear below 12,000 feet AGL
Weather: no significant weather observed at this time
Forecast for: UUWW (MOSCOW/VNUKOVO , RU)
Text: TAF UUWW 240150Z 2403/2503 08003MPS 9999 NSC TX15/2412Z TN03/2503Z
Forecast period: 0300 UTC 24 September 2017 to 0300 UTC 25 September 2017
Forecast type: FROM: standard forecast or significant change
Winds: from the E (80 degrees) at 7 MPH (6 knots; 3.1 m/s)
Visibility: 6 or more miles (10+ km)
Clouds: not forecast
Weather: no significant weather forecast for this period
Text: TEMPO 2403/2405 0500 FG SCT003
Forecast period: 0300 to 0500 UTC 24 September 2017
Forecast type: TEMPORARY: The following changes expected for less than half the time period
Visibility: 0.31 miles (0.50 km)
Clouds: scattered clouds at 300 feet AGL
Weather: FG  (fog)
METAR text: UUEE 240430Z 06004MPS CAVOK 06/05 Q1037 R06L/CLRD62 R06R/CLRD62 NOSIG
Conditions at: UUEE (MOSCOW/SHEREMET', RU) observed 0430 UTC 24 September 2017
Temperature: 6.0°C (43°F)
Dewpoint: 5.0°C (41°F) [RH = 93%]
Pressure (altimeter): 30.62 inches Hg (1037.0 mb)
Winds: from the ENE (60 degrees) at 9 MPH (8 knots; 4.2 m/s)
Visibility: 6 or more miles (10+ km)
Ceiling: ceiling and visibility are OK
Clouds: unknown
Weather: no significant weather observed at this time
Forecast for: UUEE (MOSCOW/SHEREMET', RU)
Text: TAF UUEE 240200Z 2403/2503 08004MPS CAVOK TX16/2413Z TN04/2403Z
Forecast period: 0300 UTC 24 September 2017 to 0300 UTC 25 September 2017
Forecast type: FROM: standard forecast or significant change
Winds: from the E (80 degrees) at 9 MPH (8 knots; 4.2 m/s)
Visibility: 6 or more miles (10+ km)
Clouds: not forecast
Weather: no significant weather forecast for this period
METAR text: UUDD 240430Z 06002MPS 020V100 8000 NSC 05/04 Q1036 R88/010095 NOSIG
Conditions at: UUDD (MOSCOW/DOMODEDOV, RU) observed 0430 UTC 24 September 2017
Temperature: 5.0°C (41°F)
Dewpoint: 4.0°C (39°F) [RH = 93%]
Pressure (altimeter): 30.59 inches Hg (1036.0 mb)
Winds: from the ENE (60 degrees) at 5 MPH (4 knots; 2.1 m/s)
Visibility: 5 miles (8 km)
Ceiling: at least 12,000 feet AGL
Clouds: sky clear below 12,000 feet AGL
Weather: no significant weather observed at this time
Forecast for: UUDD (MOSCOW/DOMODEDOV, RU)
Text: TAF UUDD 240155Z 2403/2509 07003MPS 6000 SCT030 TX15/2412Z TN03/2403Z
Forecast period: 0300 UTC 24 September 2017 to 0900 UTC 25 September 2017
Forecast type: FROM: standard forecast or significant change
Winds: from the ENE (70 degrees) at 7 MPH (6 knots; 3.1 m/s)
Visibility: 4 miles (6 km)
Clouds: scattered clouds at 3000 feet AGL
Weather: no significant weather forecast for this period
Text: TEMPO 2403/2406 0300 FG SCT003
Forecast period: 0300 to 0600 UTC 24 September 2017
Forecast type: TEMPORARY: The following changes expected for less than half the time period
Visibility: 0.19 miles (0.31 km)
Clouds: scattered clouds at 300 feet AGL
Weather: FG  (fog)
Text: TEMPO 2408/2415 07008MPS
Forecast period: 0800 to 1500 UTC 24 September 2017
Forecast type: TEMPORARY: The following changes expected for less than half the time period
Winds: from the ENE (70 degrees) at 18 MPH (16 knots; 8.3 m/s)
Weather: no significant weather forecast for this period